^^
Saratoga-Weather Station Historical Data
Daily Summary for July 3, 2020 Units:  English    Metric   Both
Daily Weekly Monthly Yearly Custom
  High: Low: Average:
Temperature: 64.9 °F 37.8 °F 50.9 °F
Dew Point: 50 °F 36.5 °F 43.5 °F
Humidity: 96% 46% 78%
Wind Speed: 6mph 0mph 0.7mph
Wind Gust: 9mph - -
Wind- - SE
Pressure: 30.1 in 30 in -
Precipitation: 0 in    
Historical Graphs
 
 
Tabular Data for July 3, 2020
Time Temperature Dew Point Pressure Wind Wind Speed Wind Gust Humidity Rainfall Rate (Hourly) solar
00:00 43.5 °F 41.4 °F 30 in Calm     92% 0 in 0 W/m2
00:05 43.3 °F 41.2 °F 30 in Calm     92% 0 in 0 W/m2
00:10 43.3 °F 41.2 °F 30 in Calm     92% 0 in 0 W/m2
00:15 43.3 °F 41.5 °F 30 in Calm     93% 0 in 0 W/m2
00:20 43.3 °F 41.2 °F 30 in Calm     92% 0 in 0 W/m2
00:25 43.3 °F 41.2 °F 30 in Calm     92% 0 in 0 W/m2
00:30 43.3 °F 41.2 °F 30 in Calm     92% 0 in 0 W/m2
00:35 43.2 °F 41 °F 30 in Calm     92% 0 in 0 W/m2
00:40 43.2 °F 41 °F 30 in Calm     92% 0 in 0 W/m2
00:45 43 °F 41.2 °F 30 in Calm     93% 0 in 0 W/m2
00:50 43 °F 41.2 °F 30 in Calm     93% 0 in 0 W/m2
00:55 43 °F 41.2 °F 30 in Calm     93% 0 in 0 W/m2
01:00 42.8 °F 40.6 °F 30 in Calm     92% 0 in 0 W/m2
01:05 42.6 °F 40.8 °F 30 in Calm     93% 0 in 0 W/m2
01:11 42.6 °F 40.8 °F 30 in Calm     93% 0 in 0 W/m2
01:16 42.6 °F 40.8 °F 30 in Calm     93% 0 in 0 W/m2
01:21 42.6 °F 40.8 °F 30 in Calm     93% 0 in 0 W/m2
01:26 42.4 °F 40.6 °F 30 in Calm     93% 0 in 0 W/m2
01:31 42.4 °F 40.6 °F 30 in Calm     93% 0 in 0 W/m2
01:36 42.4 °F 40.6 °F 30 in Calm     93% 0 in 0 W/m2
01:41 42.3 °F 40.5 °F 30 in Calm     93% 0 in 0 W/m2
01:46 42.3 °F 40.5 °F 30 in Calm     93% 0 in 0 W/m2
01:51 42.3 °F 40.5 °F 30 in Calm     93% 0 in 0 W/m2
01:56 42.1 °F 40.3 °F 30 in Calm     93% 0 in 0 W/m2
02:01 41.9 °F 40.1 °F 30 in Calm     93% 0 in 0 W/m2
02:06 41.7 °F 39.9 °F 30 in Calm     93% 0 in 0 W/m2
02:11 41.5 °F 39.7 °F 30 in Calm     93% 0 in 0 W/m2
02:16 41.5 °F 39.9 °F 30 in Calm     94% 0 in 0 W/m2
02:21 41.5 °F 39.9 °F 30 in Calm     94% 0 in 0 W/m2
02:26 41.4 °F 39.7 °F 30 in Calm     94% 0 in 0 W/m2
02:31 41.4 °F 39.6 °F 30 in Calm     93% 0 in 0 W/m2
02:36 41.2 °F 39.6 °F 30 in Calm     94% 0 in 0 W/m2
02:41 41 °F 39.4 °F 30 in Calm     94% 0 in 0 W/m2
02:46 40.8 °F 39.2 °F 30 in Calm     94% 0 in 0 W/m2
02:51 40.6 °F 39 °F 30 in Calm     94% 0 in 0 W/m2
02:56 40.5 °F 38.8 °F 30 in Calm     94% 0 in 0 W/m2
03:01 40.5 °F 38.8 °F 30 in Calm     94% 0 in 0 W/m2
03:06 40.5 °F 38.8 °F 30 in Calm     94% 0 in 0 W/m2
03:11 40.5 °F 38.8 °F 30 in Calm     94% 0 in 0 W/m2
03:16 40.5 °F 38.8 °F 30 in Calm     94% 0 in 0 W/m2
03:21 40.5 °F 38.8 °F 30 in Calm     94% 0 in 0 W/m2
03:26 40.3 °F 38.7 °F 30 in Calm     94% 0 in 0 W/m2
03:31 40.3 °F 38.7 °F 30 in Calm     94% 0 in 0 W/m2
03:36 40.1 °F 38.5 °F 30 in Calm     94% 0 in 0 W/m2
03:41 39.9 °F 38.3 °F 30 in Calm     94% 0 in 0 W/m2
03:46 39.9 °F 38.3 °F 30 in Calm     94% 0 in 0 W/m2
03:51 39.9 °F 38.3 °F 30 in Calm     94% 0 in 0 W/m2
03:56 39.7 °F 38.1 °F 30 in Calm     94% 0 in 0 W/m2
04:01 39.7 °F 38.1 °F 30 in Calm     94% 0 in 0 W/m2
04:06 39.6 °F 37.9 °F 30 in Calm     94% 0 in 0 W/m2
04:11 39.4 °F 38.1 °F 30 in Calm     95% 0 in 0 W/m2
04:16 39.4 °F 38.1 °F 30 in Calm     95% 0 in 0 W/m2
04:21 39.4 °F 38.1 °F 30 in Calm     95% 0 in 0 W/m2
04:26 39.2 °F 37.9 °F 30 in Calm     95% 0 in 0 W/m2
04:31 39 °F 37.8 °F 30 in Calm     95% 0 in 0 W/m2
04:37 39 °F 37.8 °F 30 in Calm     95% 0 in 0 W/m2
04:42 38.8 °F 37.6 °F 30 in Calm     95% 0 in 0 W/m2
04:47 38.8 °F 37.6 °F 30 in Calm     95% 0 in 0 W/m2
04:52 38.8 °F 37.6 °F 30 in Calm     95% 0 in 0 W/m2
04:57 38.7 °F 37.4 °F 30 in Calm     95% 0 in 0 W/m2
05:02 38.7 °F 37.4 °F 30 in Calm     95% 0 in 0 W/m2
05:07 38.5 °F 37.2 °F 30 in Calm     95% 0 in 0 W/m2
05:12 38.3 °F 37 °F 30 in Calm     95% 0 in 0 W/m2
05:17 38.3 °F 37 °F 30 in Calm     95% 0 in 0 W/m2
05:22 38.3 °F 37 °F 30 in Calm     95% 0 in 0 W/m2
05:27 38.3 °F 37 °F 30 in Calm     95% 0 in 0 W/m2
05:32 38.5 °F 37.2 °F 30 in Calm     95% 0 in 0 W/m2
05:37 38.5 °F 37.2 °F 30 in Calm     95% 0 in 0 W/m2
05:42 38.5 °F 37.2 °F 30 in Calm     95% 0 in 0 W/m2
05:47 38.5 °F 37.2 °F 30 in Calm     95% 0 in 0 W/m2
05:52 38.5 °F 37.2 °F 30 in Calm     95% 0 in 0 W/m2
05:57 38.5 °F 37.2 °F 30 in Calm     95% 0 in 0 W/m2
06:02 38.3 °F 37 °F 30 in Calm     95% 0 in 0 W/m2
06:07 38.1 °F 36.9 °F 30 in Calm     95% 0 in 5 W/m2
06:12 38.1 °F 36.9 °F 30 in Calm     95% 0 in 5 W/m2
06:17 37.9 °F 36.7 °F 30 in Calm     95% 0 in 7 W/m2
06:22 37.9 °F 36.7 °F 30 in Calm     95% 0 in 9 W/m2
06:27 37.9 °F 36.7 °F 30 in Calm     95% 0 in 12 W/m2
06:32 37.8 °F 36.5 °F 30 in Calm     95% 0 in 16 W/m2
06:37 37.8 °F 36.5 °F 30 in Calm     95% 0 in 18 W/m2
06:42 37.8 °F 36.5 °F 30 in Calm     95% 0 in 21 W/m2
06:47 37.8 °F 36.7 °F 30 in Calm     96% 0 in 23 W/m2
06:52 37.9 °F 36.9 °F 30 in Calm     96% 0 in 26 W/m2
06:57 37.9 °F 36.9 °F 30 in Calm     96% 0 in 32 W/m2
07:02 38.1 °F 37 °F 30 in Calm     96% 0 in 35 W/m2
07:07 38.3 °F 37.2 °F 30 in Calm     96% 0 in 42 W/m2
07:12 38.5 °F 37.4 °F 30 in Calm     96% 0 in 39 W/m2
07:18 38.7 °F 37.6 °F 30 in Calm     96% 0 in 49 W/m2
07:23 38.7 °F 37.6 °F 30 in Calm     96% 0 in 67 W/m2
07:28 38.8 °F 37.8 °F 30.1 in Calm     96% 0 in 84 W/m2
07:33 39 °F 37.9 °F 30.1 in Calm     96% 0 in 105 W/m2
07:38 39.4 °F 38.3 °F 30.1 in Calm     96% 0 in 128 W/m2
07:43 39.7 °F 38.7 °F 30.1 in Calm   1 mph 96% 0 in 148 W/m2
07:48 40.3 °F 39.2 °F 30.1 in Calm     96% 0 in 178 W/m2
07:53 40.5 °F 39.4 °F 30.1 in Calm   1 mph 96% 0 in 183 W/m2
07:58 40.8 °F 39.7 °F 30.1 in Calm   1 mph 96% 0 in 174 W/m2
08:03 41 °F 39.9 °F 30.1 in Calm     96% 0 in 162 W/m2
08:08 41.2 °F 40.1 °F 30.1 in Calm     96% 0 in 178 W/m2
08:13 41.4 °F 40.3 °F 30.1 in Calm     96% 0 in 183 W/m2
08:18 41.5 °F 40.5 °F 30.1 in Calm     96% 0 in 207 W/m2
08:23 42.1 °F 41 °F 30.1 in NE 0.9 mph 1 mph 96% 0 in 190 W/m2
08:28 42.3 °F 41.2 °F 30.1 in ESE 0.9 mph 3 mph 96% 0 in 169 W/m2
08:33 42.4 °F 41.4 °F 30.1 in ENE 0.9 mph 1 mph 96% 0 in 153 W/m2
08:38 42.4 °F 41.4 °F 30.1 in Calm   1 mph 96% 0 in 134 W/m2
08:43 42.4 °F 41.4 °F 30.1 in East 2 mph 2 mph 96% 0 in 134 W/m2
08:48 42.6 °F 41.5 °F 30.1 in Calm   2 mph 96% 0 in 123 W/m2
08:53 42.6 °F 41.5 °F 30.1 in Calm   1 mph 96% 0 in 153 W/m2
08:58 42.8 °F 41.7 °F 30.1 in NE 0.9 mph 2 mph 96% 0 in 153 W/m2
09:03 43 °F 41.9 °F 30.1 in ENE 0.9 mph 3 mph 96% 0 in 155 W/m2
09:08 42.6 °F 41.5 °F 30.1 in NE 2 mph 3 mph 96% 0 in 165 W/m2
09:13 42.8 °F 41.7 °F 30.1 in ENE 0.9 mph 2 mph 96% 0 in 172 W/m2
09:18 43 °F 41.9 °F 30.1 in Calm   1 mph 96% 0 in 172 W/m2
09:23 43.2 °F 42.1 °F 30.1 in East 2 mph 2 mph 96% 0 in 167 W/m2
09:28 43.2 °F 42.1 °F 30.1 in Calm   3 mph 96% 0 in 134 W/m2
09:33 43.2 °F 42.1 °F 30.1 in Calm     96% 0 in 120 W/m2
09:38 43.3 °F 42.3 °F 30.1 in ENE 0.9 mph 2 mph 96% 0 in 156 W/m2
09:43 43.5 °F 42.4 °F 30.1 in East 0.9 mph 3 mph 96% 0 in 246 W/m2
09:48 43.7 °F 42.6 °F 30.1 in ESE 0.9 mph 2 mph 96% 0 in 294 W/m2
09:53 44.1 °F 43 °F 30.1 in ESE 0.9 mph 2 mph 96% 0 in 281 W/m2
09:58 44.4 °F 43.3 °F 30.1 in Calm   3 mph 96% 0 in 666 W/m2
10:03 45.1 °F 44.1 °F 30.1 in NE 2 mph 3 mph 96% 0 in 388 W/m2
10:08 45.7 °F 44.6 °F 30.1 in Calm   1 mph 96% 0 in 376 W/m2
10:14 46.2 °F 45.1 °F 30.1 in NE 0.9 mph 4 mph 96% 0 in 359 W/m2
10:19 46.6 °F 45.5 °F 30.1 in Calm   2 mph 96% 0 in 397 W/m2
10:24 47.1 °F 45.7 °F 30.1 in East 2.9 mph 4 mph 95% 0 in 359 W/m2
10:29 47.5 °F 45.9 °F 30.1 in NE 0.9 mph 2 mph 94% 0 in 369 W/m2
10:34 48 °F 46.4 °F 30.1 in ENE 2 mph 3 mph 94% 0 in 332 W/m2
10:39 48.6 °F 46.4 °F 30.1 in NNE 2 mph 2 mph 92% 0 in 417 W/m2
10:44 48.9 °F 46.4 °F 30.1 in East 2 mph 3 mph 91% 0 in 450 W/m2
10:49 49.5 °F 46.6 °F 30.1 in Calm   1 mph 90% 0 in 452 W/m2
10:54 50.2 °F 47.3 °F 30.1 in East 2.9 mph 5 mph 90% 0 in 401 W/m2
10:59 50.7 °F 47.3 °F 30.1 in ENE 0.9 mph 2 mph 88% 0 in 543 W/m2
11:04 51.3 °F 47.3 °F 30.1 in ENE 0.9 mph 3 mph 86% 0 in 457 W/m2
11:09 51.6 °F 47.3 °F 30.1 in East 0.9 mph 4 mph 85% 0 in 455 W/m2
11:14 52.5 °F 47.8 °F 30.1 in SE 2.9 mph 4 mph 84% 0 in 438 W/m2
11:19 53.1 °F 47.3 °F 30.1 in ENE 2 mph 3 mph 81% 0 in 415 W/m2
11:24 53.1 °F 47.3 °F 30.1 in NE 0.9 mph 4 mph 81% 0 in 499 W/m2
11:29 53.2 °F 47.8 °F 30.1 in Calm   3 mph 82% 0 in 468 W/m2
11:34 54 °F 48.2 °F 30.1 in NE 0.9 mph 3 mph 81% 0 in 422 W/m2
11:39 54.3 °F 48 °F 30.1 in NE 4.9 mph 5 mph 79% 0 in 418 W/m2
11:44 54.5 °F 48.2 °F 30.1 in ESE 0.9 mph 2 mph 79% 0 in 429 W/m2
11:49 54.9 °F 48.2 °F 30.1 in Calm   3 mph 78% 0 in 487 W/m2
11:54 55.6 °F 48.9 °F 30.1 in East 2 mph 3 mph 78% 0 in 584 W/m2
11:59 56.1 °F 48.9 °F 30.1 in ENE 4.9 mph 5 mph 77% 0 in 531 W/m2
12:04 56.5 °F 48.7 °F 30.1 in NE 4.9 mph 5 mph 75% 0 in 585 W/m2
12:09 56.7 °F 48.7 °F 30.1 in ESE 4 mph 4 mph 75% 0 in 461 W/m2
12:14 57 °F 48.7 °F 30.1 in East 2.9 mph 4 mph 74% 0 in 387 W/m2
12:19 57.6 °F 48.2 °F 30.1 in NE 0.9 mph 4 mph 71% 0 in 406 W/m2
12:24 57.7 °F 48 °F 30.1 in SSE 2.9 mph 7 mph 70% 0 in 390 W/m2
12:29 57.9 °F 48.2 °F 30.1 in ESE 4.9 mph 5 mph 70% 0 in 290 W/m2
12:34 58.1 °F 48 °F 30.1 in SE 2 mph 2 mph 69% 0 in 378 W/m2
12:39 58.5 °F 47.5 °F 30.1 in East 0.9 mph 4 mph 67% 0 in 283 W/m2
12:44 58.5 °F 47.5 °F 30.1 in Calm   3 mph 67% 0 in 390 W/m2
12:49 58.6 °F 47.3 °F 30.1 in ENE 2 mph 6 mph 66% 0 in 271 W/m2
12:54 58.6 °F 47.3 °F 30.1 in NNE 0.9 mph 2 mph 66% 0 in 236 W/m2
12:59 58.8 °F 47.5 °F 30.1 in WNW 0.9 mph 3 mph 66% 0 in 258 W/m2
13:04 58.8 °F 47.1 °F 30.1 in NW 0.9 mph 3 mph 65% 0 in 336 W/m2
13:09 58.8 °F 46.6 °F 30.1 in West 0.9 mph 2 mph 64% 0 in 302 W/m2
13:14 58.8 °F 46.6 °F 30.1 in West 0.9 mph 2 mph 64% 0 in 468 W/m2
13:19 59.4 °F 47.7 °F 30.1 in East 2.9 mph 3 mph 65% 0 in 584 W/m2
13:24 59.9 °F 44.6 °F 30.1 in West 0.9 mph 2 mph 57% 0 in 575 W/m2
13:29 60.4 °F 44.2 °F 30.1 in East 2.9 mph 3 mph 55% 0 in 371 W/m2
13:34 60.6 °F 43.3 °F 30.1 in WNW 2.9 mph 3 mph 53% 0 in 367 W/m2
13:39 61 °F 43.7 °F 30.1 in WNW 2.9 mph 3 mph 53% 0 in 888 W/m2
13:44 61 °F 42.3 °F 30.1 in NW 4 mph 5 mph 50% 0 in 272 W/m2
13:49 60.8 °F 43 °F 30.1 in West 2 mph 7 mph 52% 0 in 320 W/m2
13:54 61 °F 43.7 °F 30.1 in WNW 4.9 mph 5 mph 53% 0 in 940 W/m2
13:59 61 °F 42.8 °F 30.1 in NW 2 mph 7 mph 51% 0 in 353 W/m2
14:04 61.2 °F 43.3 °F 30.1 in SW 2 mph 9 mph 52% 0 in 513 W/m2
14:09 61.2 °F 43 °F 30 in WNW 0.9 mph 3 mph 51% 0 in 497 W/m2
14:14 61.5 °F 42.6 °F 30 in NW 2.9 mph 5 mph 50% 0 in 355 W/m2
14:19 61.9 °F 44.1 °F 30 in Calm   1 mph 52% 0 in 401 W/m2
14:24 61.9 °F 43.5 °F 30 in WNW 4 mph 4 mph 51% 0 in 397 W/m2
14:29 61.5 °F 42.6 °F 30 in WSW 0.9 mph 6 mph 50% 0 in 376 W/m2
14:34 61.5 °F 42.6 °F 30 in NNW 0.9 mph 3 mph 50% 0 in 410 W/m2
14:40 61.7 °F 42.8 °F 30 in NE 2.9 mph 4 mph 50% 0 in 515 W/m2
14:45 62.2 °F 43.3 °F 30 in SE 2 mph 4 mph 50% 0 in 548 W/m2
14:50 62.6 °F 42.1 °F 30 in WSW 0.9 mph 4 mph 47% 0 in 443 W/m2
14:55 62.2 °F 42.8 °F 30 in WNW 4 mph 6 mph 49% 0 in 784 W/m2
15:00 62.1 °F 42.6 °F 30 in West 4 mph 4 mph 49% 0 in 696 W/m2
15:05 62.1 °F 42.6 °F 30 in WNW 2.9 mph 4 mph 49% 0 in 418 W/m2
15:10 62.2 °F 43.3 °F 30 in West 0.9 mph 3 mph 50% 0 in 538 W/m2
15:15 62.8 °F 43.3 °F 30 in ENE 2.9 mph 3 mph 49% 0 in 490 W/m2
15:20 63.1 °F 43.2 °F 30 in West 6 mph 8 mph 48% 0 in 478 W/m2
15:25 63.1 °F 43.7 °F 30 in SSE 2 mph 2 mph 49% 0 in 548 W/m2
15:30 63.5 °F 44.1 °F 30 in East 2 mph 4 mph 49% 0 in 431 W/m2
15:35 63.9 °F 44.2 °F 30 in Calm   1 mph 49% 0 in 371 W/m2
15:40 64 °F 43.9 °F 30 in WNW 0.9 mph 3 mph 48% 0 in 480 W/m2
15:45 64 °F 44.4 °F 30 in West 4 mph 8 mph 49% 0 in 469 W/m2
15:50 63.9 °F 44.2 °F 30 in NNE 2 mph 3 mph 49% 0 in 473 W/m2
15:55 63.3 °F 44.4 °F 30 in ENE 0.9 mph 4 mph 50% 0 in 343 W/m2
16:00 63.3 °F 44.4 °F 30 in NE 2 mph 2 mph 50% 0 in 353 W/m2
16:05 63.7 °F 45.1 °F 30 in NE 2 mph 5 mph 51% 0 in 712 W/m2
16:10 64.4 °F 46.4 °F 30 in ESE 0.9 mph 4 mph 52% 0 in 698 W/m2
16:15 64.9 °F 45.3 °F 30 in ENE 2.9 mph 3 mph 49% 0 in 780 W/m2
16:20 64.9 °F 44.2 °F 30 in West 2 mph 2 mph 47% 0 in 332 W/m2
16:25 64.9 °F 44.8 °F 30 in WNW 0.9 mph 3 mph 48% 0 in 313 W/m2
16:30 64.8 °F 43.5 °F 30 in East 2 mph 2 mph 46% 0 in 248 W/m2
16:35 64.4 °F 43.7 °F 30 in Calm   2 mph 47% 0 in 271 W/m2
16:40 64.2 °F 44.1 °F 30 in West 6 mph 6 mph 48% 0 in 190 W/m2
16:45 63.9 °F 44.2 °F 30 in ENE 0.9 mph 2 mph 49% 0 in 223 W/m2
16:50 63.7 °F 45.7 °F 30 in East 2.9 mph 3 mph 52% 0 in 218 W/m2
16:55 63.3 °F 43.9 °F 30 in East 2.9 mph 9 mph 49% 0 in 179 W/m2
17:00 63.1 °F 44.2 °F 30 in Calm   6 mph 50% 0 in 232 W/m2
17:05 63.1 °F 44.8 °F 30 in ESE 2 mph 9 mph 51% 0 in 241 W/m2
17:10 63.1 °F 45.1 °F 30 in ENE 0.9 mph 2 mph 52% 0 in 223 W/m2
17:15 63.1 °F 44.2 °F 30 in ENE 2.9 mph 4 mph 50% 0 in 223 W/m2
17:21 63.1 °F 44.2 °F 30 in NE 0.9 mph 2 mph 50% 0 in 202 W/m2
17:26 63.1 °F 44.8 °F 30 in NE 2 mph 4 mph 51% 0 in 171 W/m2
17:31 63.1 °F 45.1 °F 30 in East 2 mph 2 mph 52% 0 in 142 W/m2
17:36 63.1 °F 46.2 °F 30 in NW 0.9 mph 2 mph 54% 0 in 97 W/m2
17:41 63.1 °F 47.1 °F 30 in NE 0.9 mph 1 mph 56% 0 in 113 W/m2
17:46 62.8 °F 45.9 °F 30 in NE 0.9 mph 1 mph 54% 0 in 123 W/m2
17:52 62.8 °F 45.9 °F 30 in Calm   1 mph 54% 0 in 134 W/m2
17:57 62.4 °F 44.6 °F 30 in Calm   2 mph 52% 0 in 113 W/m2
18:02 62.4 °F 46.6 °F 30 in Calm     56% 0 in 84 W/m2
18:07 62.4 °F 45.1 °F 30 in Calm   2 mph 53% 0 in 76 W/m2
18:12 62.2 °F 47.3 °F 30 in Calm     58% 0 in 77 W/m2
18:17 62.1 °F 46.2 °F 30 in Calm     56% 0 in 86 W/m2
18:22 62.1 °F 47.5 °F 30 in Calm   1 mph 59% 0 in 93 W/m2
18:27 61.9 °F 48.7 °F 30 in West 0.9 mph 1 mph 62% 0 in 76 W/m2
18:32 61.7 °F 49.5 °F 30 in Calm     64% 0 in 72 W/m2
18:37 61.5 °F 48.4 °F 30 in Calm   1 mph 62% 0 in 79 W/m2
18:42 61.3 °F 48.2 °F 30 in Calm     62% 0 in 84 W/m2
18:47 61.3 °F 47.3 °F 30 in Calm   1 mph 60% 0 in 72 W/m2
18:52 61.3 °F 47.3 °F 30 in Calm     60% 0 in 84 W/m2
18:58 61.3 °F 46.9 °F 30 in Calm   1 mph 59% 0 in 84 W/m2
19:03 61.3 °F 47.8 °F 30 in Calm   1 mph 61% 0 in 70 W/m2
19:08 61.2 °F 48.9 °F 30 in Calm     64% 0 in 56 W/m2
19:13 61.2 °F 49.3 °F 30 in Calm   2 mph 65% 0 in 47 W/m2
19:18 61 °F 50 °F 30 in East 0.9 mph 1 mph 67% 0 in 44 W/m2
19:23 60.8 °F 48.2 °F 30 in Calm     63% 0 in 40 W/m2
19:28 60.6 °F 48.4 °F 30 in Calm     64% 0 in 37 W/m2
19:33 60.4 °F 49.1 °F 30 in Calm     66% 0 in 33 W/m2
19:38 60.3 °F 49.3 °F 30 in Calm     67% 0 in 33 W/m2
19:43 60.1 °F 49.1 °F 30 in Calm     67% 0 in 32 W/m2
19:48 59.7 °F 49.5 °F 30 in Calm     69% 0 in 26 W/m2
19:53 59.5 °F 49.8 °F 30 in Calm     70% 0 in 28 W/m2
19:58 59.4 °F 49.6 °F 30 in Calm     70% 0 in 28 W/m2
20:03 59.2 °F 49.1 °F 30 in Calm     69% 0 in 26 W/m2
20:08 58.8 °F 48.7 °F 30 in Calm     69% 0 in 21 W/m2
20:13 58.8 °F 48.7 °F 30 in Calm     69% 0 in 18 W/m2
20:18 58.6 °F 48.6 °F 30 in Calm     69% 0 in 16 W/m2
20:23 58.5 °F 48.4 °F 30 in Calm     69% 0 in 14 W/m2
20:28 58.3 °F 48.6 °F 30 in Calm     70% 0 in 12 W/m2
20:33 58.1 °F 48.7 °F 30 in Calm     71% 0 in 12 W/m2
20:38 57.7 °F 48.4 °F 30 in Calm     71% 0 in 11 W/m2
20:43 57.6 °F 48.6 °F 30 in East 0.9 mph 1 mph 72% 0 in 5 W/m2
20:48 57.4 °F 48.4 °F 30 in East 0.9 mph 2 mph 72% 0 in 0 W/m2
20:53 57.2 °F 48.6 °F 30 in East 0.9 mph 2 mph 73% 0 in 0 W/m2
20:58 57 °F 48.4 °F 30 in Calm   1 mph 73% 0 in 0 W/m2
21:03 56.8 °F 48.2 °F 30 in Calm     73% 0 in 0 W/m2
21:08 56.7 °F 48.4 °F 30 in Calm   1 mph 74% 0 in 0 W/m2
21:13 56.5 °F 48.4 °F 30 in East 0.9 mph 1 mph 74% 0 in 0 W/m2
21:18 56.5 °F 48.7 °F 30 in East 0.9 mph 1 mph 75% 0 in 0 W/m2
21:24 56.1 °F 48.4 °F 30 in Calm     75% 0 in 0 W/m2
21:29 56.1 °F 48.4 °F 30 in Calm     75% 0 in 0 W/m2
21:34 55.9 °F 48.2 °F 30 in Calm     75% 0 in 0 W/m2
21:39 55.9 °F 48.6 °F 30 in Calm     76% 0 in 0 W/m2
21:44 55.8 °F 48.4 °F 30 in Calm     76% 0 in 0 W/m2
21:49 55.8 °F 48.7 °F 30 in Calm     77% 0 in 0 W/m2
21:54 55.8 °F 48.7 °F 30 in East 0.9 mph 1 mph 77% 0 in 0 W/m2
21:59 55.6 °F 48.6 °F 30 in East 0.9 mph 1 mph 77% 0 in 0 W/m2
22:04 55.6 °F 48.9 °F 30 in East 0.9 mph 1 mph 78% 0 in 0 W/m2
22:09 55.4 °F 48.7 °F 30 in Calm     78% 0 in 0 W/m2
22:14 55.4 °F 48.7 °F 30 in Calm     78% 0 in 0 W/m2
22:19 55.2 °F 48.6 °F 30 in Calm     78% 0 in 0 W/m2
22:24 55.2 °F 48.6 °F 30 in East 0.9 mph 2 mph 78% 0 in 0 W/m2
22:29 55 °F 48.4 °F 30 in East 2 mph 2 mph 78% 0 in 0 W/m2
22:34 54.9 °F 48.2 °F 30 in East 0.9 mph 1 mph 78% 0 in 0 W/m2
22:39 54.9 °F 48.2 °F 30 in East 0.9 mph 2 mph 78% 0 in 0 W/m2
22:44 54.5 °F 47.8 °F 30 in East 0.9 mph 2 mph 78% 0 in 0 W/m2
22:49 54.1 °F 47.5 °F 30 in East 2 mph 2 mph 78% 0 in 0 W/m2
22:54 54 °F 47.3 °F 30 in East 0.9 mph 1 mph 78% 0 in 0 W/m2
22:59 53.8 °F 47.5 °F 30 in Calm   1 mph 79% 0 in 0 W/m2
23:04 53.8 °F 47.5 °F 30 in Calm     79% 0 in 0 W/m2
23:09 53.6 °F 47.3 °F 30 in Calm     79% 0 in 0 W/m2
23:14 53.6 °F 47.3 °F 30 in Calm     79% 0 in 0 W/m2
23:19 53.6 °F 47.7 °F 30 in Calm     80% 0 in 0 W/m2
23:24 53.4 °F 47.5 °F 30 in Calm     80% 0 in 0 W/m2
23:29 53.2 °F 46.9 °F 30 in Calm     79% 0 in 0 W/m2
23:34 53.1 °F 47.1 °F 30 in Calm     80% 0 in 0 W/m2
23:39 52.9 °F 46.9 °F 30 in Calm     80% 0 in 0 W/m2
23:44 52.9 °F 47.3 °F 30 in Calm     81% 0 in 0 W/m2
23:49 52.5 °F 46.9 °F 30 in Calm     81% 0 in 0 W/m2
23:55 52.5 °F 46.9 °F 30 in Calm     81% 0 in 0 W/m2
Juneau County Weather
Compliments of Weather Underground - 2 mb